createdAt,value
2022-11-22T00:00:38.096Z,15.23
2022-11-22T00:05:41.741Z,15.02
2022-11-22T00:10:45.385Z,14.85
2022-11-22T00:16:01.138Z,14.63
2022-11-22T00:21:08.960Z,14.40
2022-11-22T00:26:12.584Z,14.29
2022-11-22T00:31:17.823Z,14.18
2022-11-22T00:36:21.367Z,14.56
2022-11-22T00:41:24.935Z,14.34
2022-11-22T00:46:30.141Z,13.84
2022-11-22T00:51:33.820Z,13.50
2022-11-22T00:56:37.398Z,13.31
2022-11-22T01:01:42.755Z,13.18
2022-11-22T01:06:46.454Z,13.04
2022-11-22T01:11:50.812Z,12.96
2022-11-22T01:16:56.063Z,13.02
2022-11-22T01:21:59.665Z,12.82
2022-11-22T01:27:03.216Z,12.47
2022-11-22T01:32:09.868Z,12.17
2022-11-22T01:37:13.396Z,12.14
2022-11-22T01:42:16.985Z,12.03
2022-11-22T01:47:25.819Z,11.97
2022-11-22T01:52:33.287Z,11.74
2022-11-22T01:57:39.882Z,11.65
2022-11-22T02:02:47.168Z,11.59
2022-11-22T02:07:55.953Z,11.34
2022-11-22T02:13:01.391Z,11.36
2022-11-22T02:18:07.511Z,11.08
2022-11-22T02:23:19.905Z,11.13
2022-11-22T02:28:26.145Z,11.03
2022-11-22T02:33:28.957Z,10.91
2022-11-22T02:38:35.379Z,10.80
2022-11-22T02:43:43.718Z,10.76
2022-11-22T02:48:47.723Z,10.33
2022-11-22T02:53:51.955Z,10.33
2022-11-22T02:58:57.174Z,10.39
2022-11-22T03:04:00.750Z,10.41
2022-11-22T03:09:04.368Z,10.51
2022-11-22T03:14:09.587Z,10.72
2022-11-22T03:19:13.721Z,10.55
2022-11-22T03:24:20.091Z,10.15
2022-11-22T03:29:25.279Z,10.16
2022-11-22T03:34:28.867Z,9.96
2022-11-22T03:39:32.737Z,9.95
2022-11-22T03:44:38.068Z,9.84
2022-11-22T03:49:43.816Z,9.83
2022-11-22T03:54:47.388Z,9.73
2022-11-22T03:59:52.603Z,9.57
2022-11-22T04:04:56.168Z,9.60
2022-11-22T04:09:59.724Z,9.58
2022-11-22T04:15:05.525Z,9.53
2022-11-22T04:20:11.437Z,9.54
2022-11-22T04:25:15.144Z,9.46
2022-11-22T04:30:21.442Z,9.29
2022-11-22T04:35:24.259Z,9.18
2022-11-22T04:40:27.844Z,9.14
2022-11-22T04:45:33.081Z,9.23
2022-11-22T04:50:36.770Z,9.13
2022-11-22T04:55:40.383Z,9.09
2022-11-22T05:00:46.147Z,8.97
2022-11-22T05:05:49.797Z,8.90
2022-11-22T05:10:53.331Z,8.82
2022-11-22T05:16:00.474Z,8.75
2022-11-22T05:21:06.707Z,8.71
2022-11-22T05:26:11.026Z,8.58
2022-11-22T05:31:20.344Z,8.56
2022-11-22T05:36:25.385Z,8.51
2022-11-22T05:41:29.050Z,8.47
2022-11-22T05:46:34.252Z,8.38
2022-11-22T05:51:37.816Z,8.24
2022-11-22T05:56:41.621Z,8.34
2022-11-22T06:01:46.844Z,8.32
2022-11-22T06:06:50.390Z,8.31
2022-11-22T06:11:53.976Z,8.26
2022-11-22T06:16:59.594Z,8.24
2022-11-22T06:22:03.134Z,8.15
2022-11-22T06:27:06.668Z,8.04
2022-11-22T06:32:11.820Z,8.03
2022-11-22T06:37:16.695Z,7.93
2022-11-22T06:42:20.244Z,7.95
2022-11-22T06:47:25.631Z,7.90
2022-11-22T06:52:29.217Z,7.97
2022-11-22T06:57:32.779Z,7.78
2022-11-22T07:02:37.970Z,7.87
2022-11-22T07:07:41.566Z,7.71
2022-11-22T07:12:45.164Z,7.74
2022-11-22T07:17:50.661Z,7.68
2022-11-22T07:22:54.219Z,7.71
2022-11-22T07:27:57.772Z,7.74
2022-11-22T07:33:02.952Z,7.60
2022-11-22T07:38:06.508Z,7.55
2022-11-22T07:43:10.072Z,7.55
2022-11-22T07:48:15.251Z,7.64
2022-11-22T07:53:19.165Z,7.51
2022-11-22T07:58:22.707Z,7.49
2022-11-22T08:03:29.445Z,7.46
2022-11-22T08:08:33.730Z,7.34
2022-11-22T08:13:37.537Z,7.34
2022-11-22T08:18:46.425Z,7.35
2022-11-22T08:23:50.312Z,7.32
2022-11-22T08:28:53.863Z,7.12
2022-11-22T08:33:59.058Z,7.14
2022-11-22T08:39:02.925Z,7.10
2022-11-22T08:44:06.821Z,7.06
2022-11-22T08:49:13.826Z,7.02
2022-11-22T08:54:17.419Z,6.96
2022-11-22T08:59:21.061Z,6.92
2022-11-22T09:04:26.309Z,6.83
2022-11-22T09:09:37.222Z,6.80
2022-11-22T09:14:41.476Z,6.80
2022-11-22T09:19:46.698Z,6.81
2022-11-22T09:24:50.227Z,6.70
2022-11-22T09:29:53.779Z,6.77
2022-11-22T09:34:58.996Z,6.82
2022-11-22T09:40:02.657Z,6.82
2022-11-22T09:45:30.062Z,6.71
2022-11-22T09:50:46.956Z,6.62
2022-11-22T09:55:53.799Z,6.58
2022-11-22T10:01:02.496Z,6.57
2022-11-22T10:06:14.141Z,6.39
2022-11-22T10:11:26.709Z,6.50
2022-11-22T10:16:35.617Z,6.45
2022-11-22T10:21:40.856Z,6.42
2022-11-22T10:26:45.174Z,6.39
2022-11-22T10:31:55.543Z,6.42
2022-11-22T10:37:06.508Z,6.38
2022-11-22T10:42:35.320Z,6.24
2022-11-22T10:47:57.627Z,6.19
2022-11-22T10:53:09.697Z,6.20
2022-11-22T10:58:22.214Z,6.06
2022-11-22T11:03:33.225Z,6.13
2022-11-22T11:09:16.870Z,6.18
2022-11-22T11:14:13.166Z,6.14
2022-11-22T11:19:19.956Z,6.24
2022-11-22T11:24:30.464Z,6.24
2022-11-22T11:29:40.465Z,6.34
2022-11-22T11:34:51.757Z,6.27
2022-11-22T11:39:57.618Z,6.25
2022-11-22T11:45:20.790Z,6.28
2022-11-22T11:50:26.390Z,6.14
2022-11-22T11:55:36.938Z,6.16
2022-11-22T12:00:41.408Z,6.22
2022-11-22T12:05:45.138Z,6.22
2022-11-22T12:10:58.414Z,6.10
2022-11-22T12:16:12.615Z,6.10
2022-11-22T12:21:25.883Z,6.05
2022-11-22T12:26:31.429Z,5.79
2022-11-22T12:31:40.302Z,5.75
2022-11-22T12:36:48.308Z,5.86
2022-11-22T12:41:57.597Z,5.96
2022-11-22T12:47:07.615Z,5.99
2022-11-22T12:52:23.240Z,5.91
2022-11-22T12:57:37.835Z,5.78
2022-11-22T13:02:46.208Z,5.80
2022-11-22T13:07:57.530Z,5.76
2022-11-22T13:13:05.447Z,5.61
2022-11-22T13:18:10.791Z,5.63
2022-11-22T13:23:28.884Z,5.48
2022-11-22T13:28:40.181Z,5.50
2022-11-22T13:33:52.371Z,5.60
2022-11-22T13:38:57.517Z,5.54
2022-11-22T13:44:25.329Z,5.57
2022-11-22T13:49:38.233Z,5.44
2022-11-22T13:55:22.851Z,5.52
2022-11-22T14:00:48.530Z,5.61
2022-11-22T14:05:53.277Z,5.32
2022-11-22T14:11:10.921Z,5.53
2022-11-22T14:16:29.777Z,5.51
2022-11-22T14:21:52.557Z,5.59
2022-11-22T14:27:05.492Z,5.43
2022-11-22T14:32:16.917Z,5.35
2022-11-22T14:37:45.305Z,5.51
2022-11-22T14:42:52.779Z,5.46
2022-11-22T14:48:04.996Z,5.41
2022-11-22T14:53:20.870Z,5.39
2022-11-22T14:58:28.889Z,5.44
2022-11-22T15:09:10.584Z,5.49
2022-11-22T15:09:52.547Z,5.41
2022-11-22T15:58:57.168Z,7.71
2022-11-22T16:04:00.975Z,7.91
2022-11-22T16:09:06.478Z,8.12
2022-11-22T16:14:42.530Z,8.21
2022-11-22T16:19:46.251Z,8.47
2022-11-22T16:24:51.443Z,8.70
2022-11-22T16:29:55.109Z,9.10
2022-11-22T16:35:21.824Z,9.49
2022-11-22T16:40:24.920Z,9.78
2022-11-22T16:45:28.509Z,10.02
2022-11-22T16:50:32.924Z,10.24
2022-11-22T16:55:38.151Z,10.39
2022-11-22T17:00:42.038Z,10.83
2022-11-22T17:05:46.135Z,11.33
2022-11-22T17:10:53.008Z,11.81
2022-11-22T17:15:57.423Z,12.09
2022-11-22T17:21:01.094Z,12.17
2022-11-22T17:26:06.940Z,12.32
2022-11-22T17:31:13.640Z,12.74
2022-11-22T17:36:22.942Z,13.00
2022-11-22T17:41:28.724Z,13.20
2022-11-22T17:46:34.986Z,13.33
2022-11-22T17:51:37.826Z,13.42
2022-11-22T17:56:43.102Z,13.59
2022-11-22T18:01:46.685Z,13.82
2022-11-22T18:06:50.291Z,14.07
2022-11-22T18:11:55.512Z,14.29
2022-11-22T18:16:59.088Z,14.68
2022-11-22T18:22:02.708Z,15.13
2022-11-22T18:27:07.912Z,14.74
2022-11-22T18:32:11.906Z,14.64
2022-11-22T18:37:15.502Z,14.55
2022-11-22T18:42:20.723Z,14.39
2022-11-22T18:47:24.325Z,14.55
2022-11-22T18:52:27.835Z,14.99
2022-11-22T18:57:33.427Z,15.21
2022-11-22T19:02:36.991Z,15.46
2022-11-22T19:07:40.615Z,15.63
2022-11-22T19:12:45.867Z,15.92
2022-11-22T19:17:49.420Z,16.09
2022-11-22T19:22:53.113Z,16.40
2022-11-22T19:27:58.337Z,16.22
2022-11-22T19:33:01.939Z,16.24
2022-11-22T19:38:05.496Z,16.29
2022-11-22T19:43:16.134Z,16.40
2022-11-22T19:48:20.034Z,16.57
2022-11-22T19:53:23.582Z,16.58
2022-11-22T19:58:28.741Z,16.82
2022-11-22T20:03:32.387Z,17.08
2022-11-22T20:08:36.423Z,17.22
2022-11-22T20:13:43.110Z,17.27
2022-11-22T20:18:46.678Z,17.17
2022-11-22T20:23:50.309Z,17.28
2022-11-22T20:28:58.679Z,17.43
2022-11-22T20:34:02.731Z,17.56
2022-11-22T20:39:10.046Z,17.75
2022-11-22T20:44:23.114Z,17.75
2022-11-22T20:49:28.248Z,17.66
2022-11-22T20:54:32.706Z,17.60
2022-11-22T20:59:38.064Z,17.57
2022-11-22T21:04:41.681Z,17.64
2022-11-22T21:09:45.257Z,17.93
2022-11-22T21:14:53.559Z,17.82
2022-11-22T21:19:57.496Z,17.61
2022-11-22T21:25:01.591Z,17.38
2022-11-22T21:30:08.084Z,17.57
2022-11-22T21:35:12.287Z,17.64
2022-11-22T21:40:16.369Z,17.80
2022-11-22T21:45:22.530Z,17.85
2022-11-22T21:50:26.121Z,17.65
2022-11-22T21:55:29.740Z,17.43
2022-11-22T22:00:35.953Z,17.29
2022-11-22T22:05:39.625Z,17.33
2022-11-22T22:10:43.430Z,17.49
2022-11-22T22:15:49.013Z,17.38
2022-11-22T22:21:00.647Z,17.39
2022-11-22T22:26:05.779Z,17.32
2022-11-22T22:31:12.921Z,17.23
2022-11-22T22:36:16.861Z,17.19
2022-11-22T22:41:20.868Z,17.23
2022-11-22T22:46:27.061Z,17.35
2022-11-22T22:51:33.270Z,17.36
2022-11-22T22:56:37.945Z,17.30
2022-11-22T23:01:43.168Z,17.27
2022-11-22T23:06:46.742Z,17.26
2022-11-22T23:11:50.316Z,17.22
2022-11-22T23:16:57.928Z,17.13
2022-11-22T23:22:02.093Z,16.81
2022-11-22T23:27:05.728Z,16.59
2022-11-22T23:32:10.910Z,16.45
2022-11-22T23:37:15.186Z,16.55
2022-11-22T23:42:18.954Z,16.32
2022-11-22T23:47:24.221Z,16.28
2022-11-22T23:52:27.785Z,16.13
2022-11-22T23:57:31.335Z,15.93
